Forside
METAR-TAF:

METAR-TAF

Lufthavne :

Charlevoix Municipal Airport

Charlevoix, Michigan, USA

Breddekreds: 45-18-17N, længdekreds: 085-16-29W, højde: 204 m

Aktuelle vejr

Denne rapport blev lavet for 22 minutter siden, kl. 02:15 UTC
Vind stille
Temperatur 12°C
Fugtighed 94%
Tryk 1015 hPa
Sigt: 1.2 km
Overskyet i en højde af 100 ft
dis

METAR: KCVX 250215Z AUTO 00000KT 3/4SM BR OVC001 12/11 A2996 RMK AO2 T01180109

Tid: 22:37 (02:37 UTC)


TAF: fraværende

Vejrobservationer og prognoser fra mere end 4000 lufthavne (METAR og TAF).

De gule og røde prikker repræsenterer de meteorologiske stationer.

Flyt musen over at se navnet på stationen.

Så klik over at se vejr observationer og prognoser.

At skifte det kort: Klik på de grønne knapper med et sort kors for at zoome ind; på den grønne knap med en bindestreg for at zoome ud; eller på de grønne pile for tilstødende kort.


METAR-TAF: